Time;durP1;ratioP1;P1;durP2;ratioP2;P2;SDS_P1;SDS_P2;PMS_P1;PMS_P2;Temp;Humidity;BMP_temperature;BMP_pressure;BME280_temperature;BME280_humidity;BME280_pressure;Samples;Min_cycle;Max_cycle;Signal;HPM_P1;HPM_P2
2022/11/25 00:01:07;;;;;;;18.27;6.70;;;;;;;12.25;59.66;98623.41;5091664;28;20515;-48
2022/11/25 00:03:34;;;;;;;14.02;4.93;;;;;;;12.32;59.62;98618.94;5090323;28;20028;-47
2022/11/25 00:06:18;;;;;;;17.20;5.10;;;;;;;12.34;59.24;98627.41;5091622;28;20103;-48
2022/11/25 00:08:46;;;;;;;12.35;4.95;;;;;;;12.50;59.41;98624.25;5090305;28;20039;-48
2022/11/25 00:11:13;;;;;;;8.52;3.80;;;;;;;12.53;58.80;98621.19;5090224;28;20031;-48
2022/11/25 00:13:39;;;;;;;8.30;4.15;;;;;;;12.56;58.99;98630.50;5090282;28;20020;-48
2022/11/25 00:16:08;;;;;;;10.00;3.85;;;;;;;12.61;58.92;98635.13;5091588;28;20107;-48
2022/11/25 00:18:34;;;;;;;11.88;2.90;;;;;;;12.72;58.74;98642.34;5091520;28;20414;-48
2022/11/25 00:21:08;;;;;;;10.93;4.18;;;;;;;12.76;58.39;98641.69;5091521;28;20028;-48
2022/11/25 00:23:34;;;;;;;16.30;3.92;;;;;;;12.73;58.36;98649.19;5090251;28;20032;-48
2022/11/25 00:26:14;;;;;;;12.05;3.95;;;;;;;12.62;58.70;98649.91;5091484;28;20123;-48
2022/11/25 00:28:42;;;;;;;8.98;3.50;;;;;;;12.62;58.80;98649.91;5091484;28;20016;-48
2022/11/25 00:31:14;;;;;;;14.63;4.35;;;;;;;12.58;58.77;98652.16;5091128;28;20048;-48
2022/11/25 00:33:40;;;;;;;12.55;3.85;;;;;;;12.47;58.87;98648.38;5073281;28;20028;-48
2022/11/25 00:36:12;;;;;;;11.77;4.15;;;;;;;12.49;59.27;98650.78;5090060;28;20077;-48
2022/11/25 00:38:38;;;;;;;9.18;3.97;;;;;;;12.49;59.49;98650.78;5091723;28;20028;-47
2022/11/25 00:46:32;;;;;;;8.25;3.38;;;;;;;12.26;58.97;98640.84;5094994;28;20112;-48
2022/11/25 00:48:57;;;;;;;7.20;3.78;;;;;;;12.00;59.07;98634.69;5093644;28;20477;-48
2022/11/25 00:51:23;;;;;;;11.75;3.85;;;;;;;11.91;59.44;98638.56;5093497;28;20031;-48
2022/11/25 00:53:48;;;;;;;10.30;3.35;;;;;;;11.91;59.42;98638.56;5093527;28;20032;-48
2022/11/25 00:56:14;;;;;;;9.70;3.33;;;;;;;11.87;59.30;98632.94;5094827;28;20057;-48
2022/11/25 00:58:43;;;;;;;9.52;3.00;;;;;;;11.74;59.25;98639.03;5095037;28;20035;-48
2022/11/25 01:01:10;;;;;;;9.95;3.13;;;;;;;11.78;59.62;98650.75;5094732;28;20020;-48
2022/11/25 01:03:36;;;;;;;8.25;3.17;;;;;;;11.88;59.10;98652.13;5093698;28;20172;-48
2022/11/25 01:06:03;;;;;;;11.18;4.03;;;;;;;12.04;59.29;98658.75;5094635;28;20385;-48
2022/11/25 01:08:30;;;;;;;11.60;3.63;;;;;;;12.24;59.08;98656.81;5093266;28;20031;-48
2022/11/25 01:11:05;;;;;;;14.73;4.20;;;;;;;12.24;59.57;98646.31;5094406;28;20055;-48
2022/11/25 01:13:31;;;;;;;11.88;4.78;;;;;;;12.28;59.40;98651.94;5093443;28;20028;-48
2022/11/25 01:15:56;;;;;;;12.63;3.72;;;;;;;12.18;60.03;98658.47;5094432;28;20028;-48
2022/11/25 01:18:22;;;;;;;11.93;4.13;;;;;;;12.29;60.61;98661.44;5093044;28;20024;-47
2022/11/25 01:20:48;;;;;;;13.18;3.75;;;;;;;12.46;59.78;98664.41;5094320;28;20047;-48
2022/11/25 01:23:13;;;;;;;9.90;3.58;;;;;;;12.46;59.01;98664.41;5094258;28;20039;-48
2022/11/25 01:25:39;;;;;;;9.18;2.97;;;;;;;12.31;58.79;98659.41;5092882;28;20066;-48
2022/11/25 01:28:05;;;;;;;8.52;2.60;;;;;;;12.36;60.00;98667.50;5094257;28;20022;-48
2022/11/25 01:30:31;;;;;;;8.23;3.15;;;;;;;12.45;59.52;98666.19;5093818;28;20120;-48
2022/11/25 01:32:57;;;;;;;7.70;2.58;;;;;;;12.44;59.33;98674.31;5092952;28;20481;-48
2022/11/25 01:35:23;;;;;;;13.18;3.83;;;;;;;12.56;59.64;98677.88;5094102;28;20529;-48
2022/11/25 01:37:48;;;;;;;9.73;2.92;;;;;;;12.89;59.09;98680.25;5094060;28;20016;-48
2022/11/25 01:40:14;;;;;;;12.15;3.45;;;;;;;12.99;58.39;98680.56;5092616;28;20023;-48
2022/11/25 01:42:47;;;;;;;9.35;3.30;;;;;;;13.06;57.61;98685.81;5093906;28;20513;-48
2022/11/25 01:45:34;;;;;;;10.23;3.17;;;;;;;13.30;57.45;98694.75;5092516;28;20028;-48
2022/11/25 01:48:24;;;;;;;10.57;3.80;;;;;;;13.22;56.66;98689.72;5092549;28;20084;-48
2022/11/25 01:50:50;;;;;;;10.27;3.00;;;;;;;12.96;56.94;98686.28;5092713;28;20039;-48
2022/11/25 01:53:19;;;;;;;9.30;4.10;;;;;;;12.88;57.27;98691.81;5093728;28;20390;-48
2022/11/25 01:55:53;;;;;;;9.45;3.65;;;;;;;12.72;57.36;98679.19;5093927;28;20060;-48
2022/11/25 01:58:36;;;;;;;11.57;3.92;;;;;;;12.58;58.73;98681.91;5092320;28;20042;-48
2022/11/25 02:01:01;;;;;;;9.30;3.00;;;;;;;12.82;58.79;98676.88;5093629;28;20402;-48
2022/11/25 02:03:32;;;;;;;12.63;3.50;;;;;;;12.96;58.20;98673.13;5092184;28;20028;-48
2022/11/25 02:06:15;;;;;;;10.93;3.42;;;;;;;13.25;58.93;98675.28;5093536;28;20032;-48
2022/11/25 02:08:49;;;;;;;7.57;3.40;;;;;;;13.72;57.33;98679.09;5092184;28;20524;-48
2022/11/25 02:11:17;;;;;;;7.78;2.60;;;;;;;13.95;55.56;98678.38;5091990;28;20035;-48
2022/11/25 02:13:46;;;;;;;10.63;2.75;;;;;;;13.98;54.97;98685.88;5075334;28;20219;-48
2022/11/25 02:16:12;;;;;;;11.48;3.45;;;;;;;13.97;54.83;98678.19;5093282;28;20027;-48
2022/11/25 02:18:37;;;;;;;11.05;3.30;;;;;;;14.01;54.74;98681.97;5091953;28;20016;-48
2022/11/25 02:21:03;;;;;;;15.65;3.65;;;;;;;13.85;55.21;98680.75;5091865;28;20036;-48
2022/11/25 02:23:43;;;;;;;13.48;3.42;;;;;;;13.76;54.34;98667.06;5091832;28;20513;-48
2022/11/25 02:26:09;;;;;;;9.05;3.67;;;;;;;13.34;55.04;98674.00;5091827;28;20108;-48
2022/11/25 02:28:36;;;;;;;13.23;3.95;;;;;;;13.20;56.93;98678.59;5093010;28;20020;-48
2022/11/25 02:31:01;;;;;;;10.05;3.00;;;;;;;13.33;56.16;98686.38;5092703;28;20043;-48
2022/11/25 02:33:27;;;;;;;9.48;2.72;;;;;;;13.17;55.78;98687.72;5091612;28;20024;-48
2022/11/25 02:35:57;;;;;;;9.05;3.10;;;;;;;12.83;56.24;98690.84;5092903;28;20035;-48
2022/11/25 02:38:43;;;;;;;10.30;3.10;;;;;;;12.45;56.72;98695.16;5092901;28;20032;-48
2022/11/25 02:41:15;;;;;;;5.95;2.08;;;;;;;12.31;56.42;98686.53;5093144;28;20039;-48
2022/11/25 02:43:40;;;;;;;12.02;3.00;;;;;;;12.56;57.76;98691.84;5092804;28;20032;-48
2022/11/25 02:46:15;;;;;;;5.28;1.88;;;;;;;12.94;55.43;98696.22;5091392;28;20034;-48
2022/11/25 02:48:42;;;;;;;6.75;2.70;;;;;;;12.93;55.04;98691.97;5092721;28;20031;-48
2022/11/25 02:51:12;;;;;;;8.23;2.50;;;;;;;12.99;55.32;98688.47;5091256;28;20401;-48
2022/11/25 02:53:38;;;;;;;13.48;3.30;;;;;;;12.83;55.51;98688.22;5092857;28;20066;-48
2022/11/25 02:56:04;;;;;;;13.25;3.22;;;;;;;12.73;56.81;98678.97;5091205;28;20466;-48
2022/11/25 02:58:29;;;;;;;7.72;3.10;;;;;;;12.69;57.50;98680.41;5091145;28;20028;-48
2022/11/25 03:00:55;;;;;;;8.75;3.70;;;;;;;12.74;57.46;98692.97;5091198;28;20543;-48
2022/11/25 03:03:21;;;;;;;9.40;2.90;;;;;;;12.88;57.04;98686.56;5090152;28;20028;-48
2022/11/25 03:05:46;;;;;;;8.20;3.47;;;;;;;12.62;56.70;98687.56;5091081;28;20548;-48
2022/11/25 03:08:12;;;;;;;7.68;3.15;;;;;;;12.21;57.83;98680.13;5091358;28;20506;-48
2022/11/25 03:10:38;;;;;;;7.72;2.67;;;;;;;11.95;58.05;98684.47;5090847;28;20028;-48
2022/11/25 03:13:05;;;;;;;9.27;3.67;;;;;;;11.74;58.47;98686.34;5092295;28;20097;-47
2022/11/25 03:15:31;;;;;;;8.75;3.17;;;;;;;11.80;59.37;98695.25;5090895;28;20466;-48
2022/11/25 03:17:57;;;;;;;10.07;4.30;;;;;;;11.78;59.11;98684.13;5090844;28;20060;-48
2022/11/25 03:20:23;;;;;;;8.48;3.17;;;;;;;11.69;59.77;98691.44;5090780;28;20027;-48
2022/11/25 03:22:49;;;;;;;6.80;3.42;;;;;;;11.64;59.50;98691.25;5092153;28;20066;-48
2022/11/25 03:25:16;;;;;;;9.85;3.63;;;;;;;11.49;59.29;98688.88;5092038;28;20039;-48
2022/11/25 03:27:42;;;;;;;12.00;3.33;;;;;;;11.25;60.04;98687.69;5090722;28;20036;-48
2022/11/25 03:30:11;;;;;;;7.95;3.05;;;;;;;11.34;61.28;98691.72;5092078;28;20024;-48
2022/11/25 03:32:37;;;;;;;6.93;3.25;;;;;;;11.62;60.86;98700.34;5090922;28;20486;-48
2022/11/25 03:35:04;;;;;;;14.60;3.53;;;;;;;11.67;60.08;98700.53;5091925;28;20088;-48
2022/11/25 03:37:30;;;;;;;18.17;4.85;;;;;;;11.57;60.89;98693.09;5090602;28;20020;-48
2022/11/25 03:39:55;;;;;;;7.55;3.38;;;;;;;11.65;60.53;98690.25;5091943;28;20023;-48
2022/11/25 03:42:21;;;;;;;7.85;2.97;;;;;;;11.57;60.98;98700.97;5090883;28;20020;-48
2022/11/25 03:44:46;;;;;;;18.42;4.22;;;;;;;11.71;61.19;98699.09;5090523;28;20024;-48
2022/11/25 03:47:15;;;;;;;7.70;3.13;;;;;;;11.87;60.99;98696.03;5090589;28;20115;-48
2022/11/25 03:49:41;;;;;;;12.05;3.78;;;;;;;11.95;60.23;98700.25;5091870;28;20012;-48
2022/11/25 03:52:06;;;;;;;9.60;3.25;;;;;;;11.81;60.04;98702.09;5091770;28;20149;-48
2022/11/25 03:54:32;;;;;;;19.15;4.32;;;;;;;11.60;59.95;98700.56;5091996;28;20032;-48
2022/11/25 03:56:57;;;;;;;8.63;3.60;;;;;;;11.57;60.47;98695.72;5090500;28;20375;-48
2022/11/25 03:59:23;;;;;;;8.52;3.63;;;;;;;11.57;60.76;98698.34;5091774;28;20028;-48
2022/11/25 04:01:49;;;;;;;6.70;2.63;;;;;;;11.34;60.20;98699.59;5091773;28;20401;-48
2022/11/25 04:04:14;;;;;;;10.77;3.70;;;;;;;11.03;60.30;98699.41;5092336;28;20035;-48
2022/11/25 04:06:40;;;;;;;9.00;3.70;;;;;;;10.63;61.42;98704.69;5090370;28;20027;-48
2022/11/25 04:09:07;;;;;;;9.77;3.42;;;;;;;10.33;62.48;98695.31;5090410;28;20021;-48
2022/11/25 04:14:16;;;;;;;7.82;3.20;;;;;;;10.38;64.34;98705.22;5093084;28;20115;-48
2022/11/25 04:16:42;;;;;;;12.02;4.07;;;;;;;10.54;64.28;98710.13;5095706;28;20048;-48
2022/11/25 04:19:08;;;;;;;12.70;3.42;;;;;;;10.56;63.99;98702.03;5095611;28;20568;-48
2022/11/25 04:21:33;;;;;;;10.93;3.35;;;;;;;10.50;64.15;98700.19;5095549;28;20032;-48
2022/11/25 04:23:59;;;;;;;14.38;3.90;;;;;;;10.63;64.42;98702.06;5094143;28;20119;-48
2022/11/25 04:26:25;;;;;;;7.80;2.92;;;;;;;10.41;63.47;98699.59;5094119;28;20024;-48
2022/11/25 04:28:51;;;;;;;16.00;6.03;;;;;;;10.19;63.95;98707.56;5095687;28;20474;-48
2022/11/25 04:31:17;;;;;;;12.93;4.90;;;;;;;10.20;64.81;98709.19;5094960;28;20036;-48
2022/11/25 04:33:43;;;;;;;8.07;4.40;;;;;;;10.12;64.05;98714.59;5095285;28;20032;-48
2022/11/25 04:36:11;;;;;;;12.40;3.70;;;;;;;9.89;64.96;98720.16;5095285;28;20020;-48
2022/11/25 04:38:37;;;;;;;11.93;4.35;;;;;;;9.88;65.78;98723.78;5095203;28;20081;-48
2022/11/25 04:41:02;;;;;;;12.43;3.92;;;;;;;9.76;65.28;98715.66;5095386;28;20039;-47
2022/11/25 04:43:28;;;;;;;10.45;3.35;;;;;;;9.63;65.92;98718.19;5093796;28;20031;-48
2022/11/25 04:45:54;;;;;;;8.48;2.80;;;;;;;9.51;65.93;98706.66;5093775;28;20445;-48
2022/11/25 04:48:19;;;;;;;12.05;3.28;;;;;;;9.45;65.75;98716.09;5093698;28;20020;-48
2022/11/25 04:50:45;;;;;;;15.63;3.88;;;;;;;9.50;66.65;98720.75;5093568;28;20032;-48
2022/11/25 04:53:11;;;;;;;6.10;2.78;;;;;;;9.65;66.72;98720.63;5094888;28;20063;-48
2022/11/25 04:55:37;;;;;;;17.25;6.50;;;;;;;10.04;66.77;98711.34;5093554;28;20501;-48
2022/11/25 04:58:03;;;;;;;8.07;4.15;;;;;;;10.34;65.77;98717.09;5093540;28;20473;-48
2022/11/25 05:00:28;;;;;;;13.00;3.92;;;;;;;10.40;65.83;98729.44;5094742;28;20486;-48
2022/11/25 05:02:54;;;;;;;14.77;4.28;;;;;;;10.45;65.15;98716.53;5094734;28;20077;-48
2022/11/25 05:05:20;;;;;;;15.95;3.90;;;;;;;10.64;65.49;98722.03;5093370;28;20111;-48
2022/11/25 05:07:45;;;;;;;10.68;3.50;;;;;;;10.90;65.02;98723.88;5094650;28;20028;-48
2022/11/25 05:10:11;;;;;;;16.55;3.85;;;;;;;10.96;63.56;98733.56;5093237;28;20085;-48
2022/11/25 05:12:37;;;;;;;12.55;4.20;;;;;;;10.72;63.63;98735.75;5094501;28;20028;-48
2022/11/25 05:15:04;;;;;;;16.30;4.22;;;;;;;10.32;64.48;98740.09;5093160;28;20022;-48
2022/11/25 05:17:31;;;;;;;13.68;3.70;;;;;;;10.18;65.10;98734.81;5094350;28;20073;-48
2022/11/25 05:19:57;;;;;;;8.52;3.15;;;;;;;10.07;65.50;98734.56;5094440;28;20418;-48
2022/11/25 05:22:25;;;;;;;12.23;3.80;;;;;;;10.06;65.01;98739.00;5093014;28;20101;-48
2022/11/25 05:24:51;;;;;;;9.18;3.78;;;;;;;9.83;64.88;98728.78;5092766;28;20027;-47
2022/11/25 05:27:17;;;;;;;9.00;3.38;;;;;;;9.63;65.10;98738.38;5092375;28;20024;-48
2022/11/25 05:29:43;;;;;;;11.23;3.72;;;;;;;9.41;65.65;98751.53;5094261;28;20111;-48
2022/11/25 05:32:09;;;;;;;9.00;3.65;;;;;;;9.30;66.47;98745.00;5093858;28;20046;-48
2022/11/25 05:34:36;;;;;;;17.08;4.10;;;;;;;9.46;66.87;98746.53;5092782;28;20028;-48
2022/11/25 05:37:01;;;;;;;9.43;4.20;;;;;;;9.73;66.42;98742.25;5092822;28;20028;-48
2022/11/25 05:39:27;;;;;;;16.45;4.57;;;;;;;9.72;66.16;98745.09;5094040;28;20392;-48
2022/11/25 05:41:53;;;;;;;10.25;4.18;;;;;;;9.52;65.93;98748.38;5093969;28;20036;-48
2022/11/25 05:44:18;;;;;;;11.27;3.58;;;;;;;9.12;66.59;98740.22;5093996;28;20020;-48
2022/11/25 05:46:50;;;;;;;12.82;3.75;;;;;;;8.99;67.51;98747.97;5093870;28;20493;-48
2022/11/25 05:49:17;;;;;;;10.88;3.83;;;;;;;8.87;67.61;98752.91;5093829;28;20035;-48
2022/11/25 05:51:43;;;;;;;10.02;4.55;;;;;;;8.74;68.07;98750.16;5092388;28;20071;-48
2022/11/25 05:54:09;;;;;;;7.88;3.63;;;;;;;8.45;68.67;98759.75;5092416;28;20059;-48
2022/11/25 05:56:35;;;;;;;14.70;4.60;;;;;;;8.16;69.74;98750.91;5092403;28;20024;-48
2022/11/25 05:59:02;;;;;;;14.43;3.75;;;;;;;7.90;70.31;98753.22;5092339;28;20513;-48
2022/11/25 06:01:28;;;;;;;16.35;3.80;;;;;;;7.71;71.10;98758.00;5093553;28;20032;-48
2022/11/25 06:03:54;;;;;;;8.90;3.97;;;;;;;7.72;71.40;98762.22;5092292;28;20024;-48
2022/11/25 06:06:20;;;;;;;9.82;3.65;;;;;;;7.83;71.12;98771.41;5092183;28;20553;-48
2022/11/25 06:08:46;;;;;;;14.02;3.83;;;;;;;7.84;71.46;98774.84;5092162;28;20020;-48
2022/11/25 06:11:14;;;;;;;8.82;3.40;;;;;;;7.87;71.21;98784.91;5093279;28;20046;-48
2022/11/25 06:13:43;;;;;;;11.68;4.15;;;;;;;7.85;70.83;98781.66;5092122;28;20382;-48
2022/11/25 06:16:21;;;;;;;14.18;4.10;;;;;;;7.86;70.84;98785.91;5092360;28;20429;-48
2022/11/25 06:18:46;;;;;;;19.13;4.53;;;;;;;8.08;72.33;98782.38;5091988;28;20119;-48
2022/11/25 06:21:13;;;;;;;14.13;3.80;;;;;;;8.59;71.00;98790.28;5093124;28;20110;-48
2022/11/25 06:23:39;;;;;;;7.90;3.40;;;;;;;8.88;70.07;98791.16;5093267;28;20048;-48
2022/11/25 06:26:14;;;;;;;12.30;4.18;;;;;;;8.92;68.96;98789.78;5093035;28;20518;-48
2022/11/25 06:28:40;;;;;;;12.20;4.28;;;;;;;8.72;68.09;98802.69;5074971;28;20027;-48
2022/11/25 06:31:08;;;;;;;16.17;4.78;;;;;;;8.47;68.95;98807.44;5092658;28;20042;-48
2022/11/25 06:33:33;;;;;;;12.05;4.15;;;;;;;8.50;69.16;98809.69;5091672;28;20032;-47
2022/11/25 06:36:02;;;;;;;19.17;5.30;;;;;;;8.55;69.28;98809.13;5092912;28;20016;-48
2022/11/25 06:38:27;;;;;;;12.77;4.20;;;;;;;8.55;68.83;98809.94;5092902;28;20024;-48
2022/11/25 06:40:53;;;;;;;13.75;4.70;;;;;;;8.50;68.86;98812.28;5091523;28;20401;-48
2022/11/25 06:43:19;;;;;;;9.85;3.70;;;;;;;8.44;69.14;98809.63;5092790;28;20074;-48
2022/11/25 06:45:44;;;;;;;15.07;4.75;;;;;;;8.35;69.13;98817.53;5091451;28;20024;-48
2022/11/25 06:48:10;;;;;;;14.23;5.00;;;;;;;8.29;69.10;98822.66;5092716;28;20097;-48
2022/11/25 06:50:35;;;;;;;16.23;4.68;;;;;;;8.20;69.50;98824.56;5092618;28;20020;-48
2022/11/25 06:53:01;;;;;;;14.80;4.80;;;;;;;8.19;69.80;98818.53;5092646;28;20436;-48
2022/11/25 06:55:27;;;;;;;18.13;5.40;;;;;;;8.34;69.96;98821.13;5092595;28;20532;-48
2022/11/25 06:57:53;;;;;;;22.55;6.15;;;;;;;8.59;70.18;98815.59;5091210;28;20259;-48
2022/11/25 07:00:19;;;;;;;12.52;4.93;;;;;;;8.77;69.07;98821.25;5091147;28;20016;-47
2022/11/25 07:02:44;;;;;;;12.30;5.18;;;;;;;8.76;68.16;98814.41;5092458;28;20047;-48
2022/11/25 07:05:10;;;;;;;11.30;5.00;;;;;;;8.64;68.16;98828.16;5092363;28;20490;-48
2022/11/25 07:07:36;;;;;;;8.63;4.57;;;;;;;8.53;68.78;98829.41;5091204;28;20031;-48
2022/11/25 07:10:02;;;;;;;11.40;4.78;;;;;;;8.50;68.73;98832.41;5092252;28;20099;-48
2022/11/25 07:12:29;;;;;;;14.85;5.00;;;;;;;8.61;68.48;98842.38;5090903;28;20027;-48
2022/11/25 07:14:55;;;;;;;11.35;5.03;;;;;;;8.50;67.93;98833.22;5090934;28;20063;-48
2022/11/25 07:17:21;;;;;;;11.38;4.30;;;;;;;8.31;69.40;98833.75;5092201;28;20051;-48
2022/11/25 07:19:46;;;;;;;7.57;4.93;;;;;;;8.29;69.83;98833.94;5092218;28;20188;-48
2022/11/25 07:22:12;;;;;;;12.75;5.30;;;;;;;8.04;69.85;98838.63;5092156;28;20474;-48
2022/11/25 07:24:37;;;;;;;15.30;5.68;;;;;;;7.84;70.39;98845.38;5092191;28;20070;-48
2022/11/25 07:27:05;;;;;;;19.50;5.47;;;;;;;7.82;70.68;98852.59;5090733;28;20032;-48
2022/11/25 07:29:31;;;;;;;12.27;5.65;;;;;;;7.90;70.62;98850.69;5092039;28;20043;-48
2022/11/25 07:31:57;;;;;;;15.73;5.63;;;;;;;8.33;71.79;98852.69;5091782;28;20091;-48
2022/11/25 07:34:22;;;;;;;12.73;5.18;;;;;;;8.85;69.97;98854.34;5092026;28;20020;-48
2022/11/25 07:36:49;;;;;;;14.85;5.40;;;;;;;8.86;68.52;98855.97;5092015;28;20395;-48
2022/11/25 07:39:20;;;;;;;12.90;5.68;;;;;;;8.80;67.84;98872.41;5090692;28;20027;-48
2022/11/25 07:41:51;;;;;;;11.65;5.88;;;;;;;8.64;67.82;98867.41;5090642;28;20093;-48
2022/11/25 07:44:18;;;;;;;15.65;5.32;;;;;;;8.48;68.04;98869.22;5091928;28;20020;-48
2022/11/25 07:46:47;;;;;;;13.65;5.53;;;;;;;8.46;68.39;98873.81;5091834;28;20028;-48
2022/11/25 07:49:24;;;;;;;12.10;5.00;;;;;;;8.50;68.68;98877.69;5095032;28;20478;-48
2022/11/25 07:51:52;;;;;;;13.45;5.35;;;;;;;8.63;68.58;98878.84;5098443;28;20031;-48
2022/11/25 07:54:19;;;;;;;20.50;6.68;;;;;;;9.18;69.02;98880.88;5080440;28;20020;-48
2022/11/25 07:56:45;;;;;;;20.45;6.15;;;;;;;9.84;67.91;98886.88;5098542;28;20020;-48
2022/11/25 07:59:17;;;;;;;15.70;5.50;;;;;;;10.27;65.42;98889.38;5097248;28;20020;-48
2022/11/25 08:01:43;;;;;;;13.90;5.28;;;;;;;10.44;65.05;98892.53;5098467;28;20036;-47
2022/11/25 08:04:11;;;;;;;12.35;5.40;;;;;;;10.41;63.53;98895.56;5098472;28;20020;-48
2022/11/25 08:06:41;;;;;;;17.60;5.53;;;;;;;10.41;64.43;98893.72;5098526;28;20108;-48
2022/11/25 08:09:09;;;;;;;11.57;5.43;;;;;;;10.74;63.62;98901.75;5098347;28;20031;-48
2022/11/25 08:11:35;;;;;;;18.17;5.93;;;;;;;11.02;63.19;98900.84;5098342;28;20032;-48
2022/11/25 08:14:01;;;;;;;15.32;4.70;;;;;;;11.33;62.40;98894.25;5098308;28;20020;-48
2022/11/25 08:16:31;;;;;;;10.68;4.93;;;;;;;11.46;61.70;98901.34;5098334;28;20049;-48
2022/11/25 08:18:59;;;;;;;13.15;5.20;;;;;;;11.42;60.72;98903.53;5098590;28;20028;-48
2022/11/25 08:21:25;;;;;;;14.55;5.78;;;;;;;11.40;61.50;98911.63;5096974;28;20070;-48
2022/11/25 08:23:52;;;;;;;11.77;4.93;;;;;;;11.44;61.81;98903.34;5098367;28;20020;-48
2022/11/25 08:26:25;;;;;;;12.27;5.35;;;;;;;11.42;61.32;98902.75;5096884;28;20494;-48
2022/11/25 08:28:55;;;;;;;15.07;5.18;;;;;;;11.37;61.20;98901.53;5097033;28;20111;-48
2022/11/25 08:31:41;;;;;;;14.68;5.95;;;;;;;11.23;61.05;98894.63;5096821;28;20068;-48
2022/11/25 08:34:07;;;;;;;14.75;6.25;;;;;;;11.23;61.51;98899.88;5098440;28;20036;-48
2022/11/25 08:36:35;;;;;;;19.35;7.50;;;;;;;11.57;62.48;98906.81;5098202;28;20027;-47
2022/11/25 08:39:04;;;;;;;24.17;6.38;;;;;;;12.50;61.51;98907.75;5097211;28;20489;-48
2022/11/25 08:41:33;;;;;;;17.52;7.18;;;;;;;13.59;59.35;98901.53;5096827;28;20028;-48
2022/11/25 08:44:01;;;;;;;22.58;6.40;;;;;;;14.87;55.96;98899.28;5098112;28;20039;-47
2022/11/25 08:46:32;;;;;;;14.10;6.53;;;;;;;15.83;52.02;98896.69;5096824;28;20020;-48
2022/11/25 08:48:58;;;;;;;21.30;6.85;;;;;;;16.21;50.33;98902.56;5098028;28;20532;-48
2022/11/25 08:51:28;;;;;;;13.82;6.75;;;;;;;15.82;49.06;98900.38;5097973;28;20056;-48
2022/11/25 08:53:54;;;;;;;15.15;7.43;;;;;;;14.90;49.66;98895.38;5098027;28;20107;-48
2022/11/25 08:56:22;;;;;;;16.38;6.70;;;;;;;14.17;52.16;98912.81;5097957;28;20024;-48
2022/11/25 08:58:48;;;;;;;17.95;7.65;;;;;;;13.78;52.22;98910.34;5096681;28;20513;-48
2022/11/25 09:01:15;;;;;;;15.32;7.25;;;;;;;13.38;52.94;98910.63;5095470;28;20129;-48
2022/11/25 09:03:44;;;;;;;16.08;6.97;;;;;;;13.10;54.00;98915.38;5094847;28;20113;-48
2022/11/25 09:06:11;;;;;;;15.40;6.47;;;;;;;13.27;55.22;98908.63;5093478;28;20490;-48
2022/11/25 09:08:38;;;;;;;20.02;7.18;;;;;;;13.47;54.08;98908.53;5093532;28;20490;-48
2022/11/25 09:11:05;;;;;;;12.80;5.85;;;;;;;13.46;53.95;98921.91;5093523;28;20027;-48
2022/11/25 09:13:31;;;;;;;16.40;7.00;;;;;;;13.33;53.95;98922.81;5093301;28;20028;-48
2022/11/25 09:15:57;;;;;;;20.77;7.28;;;;;;;13.29;54.81;98925.06;5094516;28;20020;-48
2022/11/25 09:18:25;;;;;;;28.38;6.60;;;;;;;13.33;54.70;98923.59;5093166;28;20024;-48
2022/11/25 09:20:52;;;;;;;16.30;6.65;;;;;;;12.99;54.42;98922.94;5094428;28;20391;-48
2022/11/25 09:23:19;;;;;;;13.25;6.25;;;;;;;12.63;55.46;98926.13;5094351;28;20120;-48
2022/11/25 09:25:55;;;;;;;14.80;5.78;;;;;;;12.76;55.70;98925.28;5094372;28;20024;-48
2022/11/25 09:28:22;;;;;;;14.75;5.55;;;;;;;13.10;55.34;98936.47;5093049;28;20035;-47
2022/11/25 09:30:48;;;;;;;14.30;6.53;;;;;;;13.46;55.04;98933.28;5075864;28;20086;-48
2022/11/25 09:33:14;;;;;;;19.67;7.47;;;;;;;13.76;54.22;98943.19;5093190;28;20497;-48
2022/11/25 09:35:40;;;;;;;20.27;5.97;;;;;;;13.87;54.20;98942.50;5094177;28;20038;-48
2022/11/25 09:38:06;;;;;;;17.77;5.97;;;;;;;13.99;53.97;98946.06;5094001;28;20016;-48
2022/11/25 09:41:05;;;;;;;14.93;6.10;;;;;;;14.26;53.62;98951.09;5094098;28;20032;-48
2022/11/25 09:46:44;;;;;;;15.05;6.28;;;;;;;14.18;53.38;98954.84;5093998;28;20118;-48
2022/11/25 09:49:31;;;;;;;11.30;5.80;;;;;;;14.04;53.25;98961.25;5093923;28;20020;-48
2022/11/25 09:52:05;;;;;;;19.70;6.13;;;;;;;13.85;54.45;98959.59;5093801;28;20099;-48
2022/11/25 09:55:02;;;;;;;18.73;6.55;;;;;;;14.35;54.70;98964.84;5092523;28;20028;-48
2022/11/25 09:57:36;;;;;;;14.43;5.80;;;;;;;14.94;53.04;98962.63;5064153;28;20031;-48
2022/11/25 10:00:12;;;;;;;13.37;6.47;;;;;;;15.08;52.17;98966.72;5092407;28;20024;-48
2022/11/25 10:02:43;;;;;;;17.20;6.93;;;;;;;15.05;52.19;98967.16;5075606;28;20572;-48
2022/11/25 10:05:26;;;;;;;116.10;60.55;;;;;;;14.85;52.69;98969.22;5092578;28;20398;-48
2022/11/25 10:07:56;;;;;;;17.42;7.18;;;;;;;14.68;52.80;98967.16;5092280;28;20028;-48
2022/11/25 10:10:30;;;;;;;17.33;7.32;;;;;;;14.58;53.00;98967.66;5093569;28;20066;-48
2022/11/25 10:12:57;;;;;;;21.65;7.10;;;;;;;14.44;53.30;98981.22;5091625;28;20478;-48
2022/11/25 10:15:38;;;;;;;15.95;7.22;;;;;;;14.36;53.56;98977.00;5093372;28;20016;-48
2022/11/25 10:18:12;;;;;;;14.88;6.25;;;;;;;14.30;53.53;98978.69;5092017;28;20036;-48
2022/11/25 10:20:40;;;;;;;24.48;7.00;;;;;;;14.27;55.49;98979.13;5092011;28;20028;-48
2022/11/25 10:23:18;;;;;;;17.23;6.38;;;;;;;14.36;54.73;98977.00;5091894;28;20012;-48
2022/11/25 10:25:47;;;;;;;30.38;8.82;;;;;;;14.48;54.91;98983.19;5091987;28;20024;-48
2022/11/25 10:28:30;;;;;;;20.33;6.32;;;;;;;14.71;54.47;98989.72;5093125;28;20099;-48
2022/11/25 10:31:16;;;;;;;16.75;7.03;;;;;;;15.00;54.13;98982.06;5092722;28;20051;-48
2022/11/25 10:33:41;;;;;;;;;;;;;;;14.98;53.75;98983.09;5092224;28;20028;-48
2022/11/25 10:36:16;;;;;;;12.45;6.10;;;;;;;14.90;53.95;98977.31;5091634;28;19932;-48
2022/11/25 10:39:06;;;;;;;20.73;6.60;;;;;;;14.99;53.85;98981.28;5093031;28;20024;-48
2022/11/25 10:41:45;;;;;;;25.33;7.75;;;;;;;15.21;53.49;98983.44;5092875;28;20028;-48
2022/11/25 10:44:24;;;;;;;21.25;8.55;;;;;;;15.53;53.22;98986.66;5092893;28;20081;-48
2022/11/25 10:47:27;;;;;;;26.73;8.85;;;;;;;16.03;52.33;98975.75;5092775;28;20024;-48
2022/11/25 10:50:17;;;;;;;18.75;7.50;;;;;;;16.40;50.35;98991.47;5091368;28;20105;-48
2022/11/25 10:53:11;;;;;;;16.70;6.80;;;;;;;16.37;50.36;98991.91;5091310;28;20498;-48
2022/11/25 10:55:36;;;;;;;28.00;7.57;;;;;;;16.28;50.78;98986.16;5092626;28;20095;-48
2022/11/25 10:58:47;;;;;;;28.55;7.68;;;;;;;16.32;50.75;98994.47;5091491;28;20572;-48
2022/11/25 11:01:19;;;;;;;13.18;6.38;;;;;;;16.26;50.64;98992.69;5087291;28;20032;-48
2022/11/25 11:03:52;;;;;;;30.80;9.35;;;;;;;16.28;51.15;98988.81;5092474;28;20039;-48
2022/11/25 11:06:33;;;;;;;24.75;6.85;;;;;;;16.48;51.10;98992.94;5092419;28;20556;-48
2022/11/25 11:08:59;;;;;;;181.32;96.90;;;;;;;16.84;50.64;98993.72;5092414;28;20115;-48
2022/11/25 11:11:25;;;;;;;33.85;11.55;;;;;;;17.06;49.69;98991.25;5090913;28;20016;-48
2022/11/25 11:13:59;;;;;;;19.00;7.32;;;;;;;17.03;49.27;98986.44;5092525;28;20385;-49
2022/11/25 11:16:55;;;;;;;18.92;6.90;;;;;;;16.83;49.40;98981.53;5092361;28;20028;-48
2022/11/25 11:19:25;;;;;;;15.68;7.10;;;;;;;16.65;48.63;98982.44;5090067;28;20051;-48
2022/11/25 11:21:51;;;;;;;23.05;8.90;;;;;;;16.43;49.57;98984.88;5090840;28;20070;-48
2022/11/25 11:24:36;;;;;;;15.68;6.90;;;;;;;16.33;49.90;98977.50;5090007;28;20024;-48
2022/11/25 11:27:16;;;;;;;19.90;7.03;;;;;;;16.17;50.60;98976.34;5090974;28;20150;-48
2022/11/25 11:29:43;;;;;;;21.95;7.18;;;;;;;16.25;50.65;98983.97;5092382;28;20449;-48
2022/11/25 11:32:23;;;;;;;14.48;6.45;;;;;;;16.17;50.63;98979.81;5091786;28;20046;-48
2022/11/25 11:35:26;;;;;;;19.02;6.20;;;;;;;15.83;50.91;98984.00;5090725;28;20036;-48
2022/11/25 11:37:58;;;;;;;24.33;7.07;;;;;;;15.69;51.87;98980.72;5029502;28;20057;-48
2022/11/25 11:40:29;;;;;;;14.82;5.93;;;;;;;15.78;51.96;98983.91;5013123;28;20121;-48
2022/11/25 11:43:13;;;;;;;19.48;8.20;;;;;;;16.02;54.33;98978.63;5029530;28;20046;-48
2022/11/25 11:45:56;;;;;;;18.83;7.40;;;;;;;15.83;55.82;98981.38;5013019;28;20030;-48
2022/11/25 11:48:41;;;;;;;16.05;7.50;;;;;;;15.05;60.52;98992.78;5029525;28;20033;-48
2022/11/25 11:51:30;;;;;;;25.80;8.25;;;;;;;14.52;67.86;99000.22;5012845;28;20476;-48